sensor_id;sensor_type;location;lat;lon;timestamp;temperature;humidity
20041;DHT22;10181;48.072;9.884;2023-04-01T00:01:04;6.60;99.90
20041;DHT22;10181;48.072;9.884;2023-04-01T00:03:31;6.60;99.90
20041;DHT22;10181;48.072;9.884;2023-04-01T00:05:58;6.60;99.90
20041;DHT22;10181;48.072;9.884;2023-04-01T00:08:25;6.50;99.90
20041;DHT22;10181;48.072;9.884;2023-04-01T00:10:52;6.50;99.90
20041;DHT22;10181;48.072;9.884;2023-04-01T00:13:18;6.60;99.90
20041;DHT22;10181;48.072;9.884;2023-04-01T00:15:44;6.60;99.90
20041;DHT22;10181;48.072;9.884;2023-04-01T00:18:10;6.60;99.90
20041;DHT22;10181;48.072;9.884;2023-04-01T00:20:36;6.60;99.90
20041;DHT22;10181;48.072;9.884;2023-04-01T00:23:02;6.60;99.90
20041;DHT22;10181;48.072;9.884;2023-04-01T00:25:28;6.60;99.90
20041;DHT22;10181;48.072;9.884;2023-04-01T00:27:54;6.60;99.90
20041;DHT22;10181;48.072;9.884;2023-04-01T00:30:20;6.60;99.90
20041;DHT22;10181;48.072;9.884;2023-04-01T00:32:45;6.60;99.90
20041;DHT22;10181;48.072;9.884;2023-04-01T00:35:11;6.60;99.90
20041;DHT22;10181;48.072;9.884;2023-04-01T00:37:37;6.60;99.90
20041;DHT22;10181;48.072;9.884;2023-04-01T00:42:53;6.60;99.90
20041;DHT22;10181;48.072;9.884;2023-04-01T00:45:29;6.60;99.90
20041;DHT22;10181;48.072;9.884;2023-04-01T00:47:55;6.60;99.90
20041;DHT22;10181;48.072;9.884;2023-04-01T00:50:22;6.60;99.90
20041;DHT22;10181;48.072;9.884;2023-04-01T00:52:49;6.60;99.90
20041;DHT22;10181;48.072;9.884;2023-04-01T00:55:16;6.60;99.90
20041;DHT22;10181;48.072;9.884;2023-04-01T00:57:46;6.50;99.90
20041;DHT22;10181;48.072;9.884;2023-04-01T01:00:13;6.60;99.90
20041;DHT22;10181;48.072;9.884;2023-04-01T01:02:42;6.60;99.90
20041;DHT22;10181;48.072;9.884;2023-04-01T01:05:13;6.60;99.90
20041;DHT22;10181;48.072;9.884;2023-04-01T01:10:24;6.60;99.90
20041;DHT22;10181;48.072;9.884;2023-04-01T01:18:19;6.50;99.90
20041;DHT22;10181;48.072;9.884;2023-04-01T01:26:42;6.40;99.90
20041;DHT22;10181;48.072;9.884;2023-04-01T01:29:40;6.40;99.90
20041;DHT22;10181;48.072;9.884;2023-04-01T01:37:33;6.30;99.90
20041;DHT22;10181;48.072;9.884;2023-04-01T01:40:04;6.30;99.90
20041;DHT22;10181;48.072;9.884;2023-04-01T01:42:31;6.40;99.90
20041;DHT22;10181;48.072;9.884;2023-04-01T01:45:00;6.30;99.90
20041;DHT22;10181;48.072;9.884;2023-04-01T01:47:28;6.30;99.90
20041;DHT22;10181;48.072;9.884;2023-04-01T01:49:55;6.30;99.90
20041;DHT22;10181;48.072;9.884;2023-04-01T01:52:24;6.30;99.90
20041;DHT22;10181;48.072;9.884;2023-04-01T01:54:55;6.20;99.90
20041;DHT22;10181;48.072;9.884;2023-04-01T01:57:34;6.20;99.90
20041;DHT22;10181;48.072;9.884;2023-04-01T02:00:07;6.20;99.90
20041;DHT22;10181;48.072;9.884;2023-04-01T02:02:47;6.10;99.90
20041;DHT22;10181;48.072;9.884;2023-04-01T02:05:24;6.10;99.90
20041;DHT22;10181;48.072;9.884;2023-04-01T02:08:12;6.00;99.90
20041;DHT22;10181;48.072;9.884;2023-04-01T02:10:42;5.90;99.90
20041;DHT22;10181;48.072;9.884;2023-04-01T02:13:27;5.90;99.90
20041;DHT22;10181;48.072;9.884;2023-04-01T02:15:58;5.90;99.90
20041;DHT22;10181;48.072;9.884;2023-04-01T02:18:24;5.90;99.90
20041;DHT22;10181;48.072;9.884;2023-04-01T02:20:50;5.80;99.90
20041;DHT22;10181;48.072;9.884;2023-04-01T02:23:16;5.80;99.90
20041;DHT22;10181;48.072;9.884;2023-04-01T02:25:42;5.70;99.90
20041;DHT22;10181;48.072;9.884;2023-04-01T02:28:10;5.70;99.90
20041;DHT22;10181;48.072;9.884;2023-04-01T02:30:39;5.60;99.90
20041;DHT22;10181;48.072;9.884;2023-04-01T02:33:06;5.70;99.90
20041;DHT22;10181;48.072;9.884;2023-04-01T02:35:34;5.70;99.90
20041;DHT22;10181;48.072;9.884;2023-04-01T02:38:02;5.60;99.90
20041;DHT22;10181;48.072;9.884;2023-04-01T02:40:28;5.60;99.90
20041;DHT22;10181;48.072;9.884;2023-04-01T02:42:53;5.70;99.90
20041;DHT22;10181;48.072;9.884;2023-04-01T02:45:19;5.80;99.90
20041;DHT22;10181;48.072;9.884;2023-04-01T02:47:45;5.70;99.90
20041;DHT22;10181;48.072;9.884;2023-04-01T02:50:11;5.70;99.90
20041;DHT22;10181;48.072;9.884;2023-04-01T02:52:36;5.70;99.90
20041;DHT22;10181;48.072;9.884;2023-04-01T02:55:03;5.80;99.90
20041;DHT22;10181;48.072;9.884;2023-04-01T02:57:28;5.80;99.90
20041;DHT22;10181;48.072;9.884;2023-04-01T02:59:54;5.80;99.90
20041;DHT22;10181;48.072;9.884;2023-04-01T03:02:20;5.80;99.90
20041;DHT22;10181;48.072;9.884;2023-04-01T03:04:45;5.70;99.90
20041;DHT22;10181;48.072;9.884;2023-04-01T03:07:11;5.80;99.90
20041;DHT22;10181;48.072;9.884;2023-04-01T03:09:37;5.80;99.90
20041;DHT22;10181;48.072;9.884;2023-04-01T03:12:03;5.80;99.90
20041;DHT22;10181;48.072;9.884;2023-04-01T03:14:29;5.80;99.90
20041;DHT22;10181;48.072;9.884;2023-04-01T03:16:54;5.80;99.90
20041;DHT22;10181;48.072;9.884;2023-04-01T03:19:20;5.80;99.90
20041;DHT22;10181;48.072;9.884;2023-04-01T03:21:49;5.80;99.90
20041;DHT22;10181;48.072;9.884;2023-04-01T03:24:14;5.80;99.90
20041;DHT22;10181;48.072;9.884;2023-04-01T03:26:40;5.80;99.90
20041;DHT22;10181;48.072;9.884;2023-04-01T03:29:06;5.80;99.90
20041;DHT22;10181;48.072;9.884;2023-04-01T03:31:31;5.80;99.90
20041;DHT22;10181;48.072;9.884;2023-04-01T03:33:57;5.80;99.90
20041;DHT22;10181;48.072;9.884;2023-04-01T03:36:23;5.90;99.90
20041;DHT22;10181;48.072;9.884;2023-04-01T03:38:48;5.80;99.90
20041;DHT22;10181;48.072;9.884;2023-04-01T03:41:16;5.90;99.90
20041;DHT22;10181;48.072;9.884;2023-04-01T03:43:42;5.90;99.90
20041;DHT22;10181;48.072;9.884;2023-04-01T03:46:08;5.80;99.90
20041;DHT22;10181;48.072;9.884;2023-04-01T03:48:33;5.90;99.90
20041;DHT22;10181;48.072;9.884;2023-04-01T03:51:00;5.90;99.90
20041;DHT22;10181;48.072;9.884;2023-04-01T03:53:25;5.90;99.90
20041;DHT22;10181;48.072;9.884;2023-04-01T03:55:52;5.80;99.90
20041;DHT22;10181;48.072;9.884;2023-04-01T03:58:18;5.80;99.90
20041;DHT22;10181;48.072;9.884;2023-04-01T04:00:43;5.80;99.90
20041;DHT22;10181;48.072;9.884;2023-04-01T04:03:09;5.80;99.90
20041;DHT22;10181;48.072;9.884;2023-04-01T04:05:35;5.90;99.90
20041;DHT22;10181;48.072;9.884;2023-04-01T04:08:01;5.90;99.90
20041;DHT22;10181;48.072;9.884;2023-04-01T04:10:26;5.90;99.90
20041;DHT22;10181;48.072;9.884;2023-04-01T04:12:54;5.90;99.90
20041;DHT22;10181;48.072;9.884;2023-04-01T04:15:20;5.90;99.90
20041;DHT22;10181;48.072;9.884;2023-04-01T04:17:46;5.90;99.90
20041;DHT22;10181;48.072;9.884;2023-04-01T04:20:12;6.00;99.90
20041;DHT22;10181;48.072;9.884;2023-04-01T04:22:38;6.00;99.90
20041;DHT22;10181;48.072;9.884;2023-04-01T04:25:04;6.00;99.90
20041;DHT22;10181;48.072;9.884;2023-04-01T04:27:30;6.00;99.90
20041;DHT22;10181;48.072;9.884;2023-04-01T04:29:55;6.00;99.90
20041;DHT22;10181;48.072;9.884;2023-04-01T04:32:21;6.10;99.90
20041;DHT22;10181;48.072;9.884;2023-04-01T04:34:47;6.10;99.90
20041;DHT22;10181;48.072;9.884;2023-04-01T04:37:12;6.10;99.90
20041;DHT22;10181;48.072;9.884;2023-04-01T04:39:38;6.10;99.90
20041;DHT22;10181;48.072;9.884;2023-04-01T04:42:03;6.10;99.90
20041;DHT22;10181;48.072;9.884;2023-04-01T04:44:29;6.10;99.90
20041;DHT22;10181;48.072;9.884;2023-04-01T04:46:55;6.10;99.90
20041;DHT22;10181;48.072;9.884;2023-04-01T04:49:20;6.00;99.90
20041;DHT22;10181;48.072;9.884;2023-04-01T04:51:46;6.10;99.90
20041;DHT22;10181;48.072;9.884;2023-04-01T04:54:11;6.10;99.90
20041;DHT22;10181;48.072;9.884;2023-04-01T04:56:37;6.10;99.90
20041;DHT22;10181;48.072;9.884;2023-04-01T04:59:03;6.10;99.90
20041;DHT22;10181;48.072;9.884;2023-04-01T05:01:28;6.10;99.90
20041;DHT22;10181;48.072;9.884;2023-04-01T05:03:54;6.10;99.90
20041;DHT22;10181;48.072;9.884;2023-04-01T05:06:20;6.10;99.90
20041;DHT22;10181;48.072;9.884;2023-04-01T05:08:45;6.10;99.90
20041;DHT22;10181;48.072;9.884;2023-04-01T05:11:17;6.00;99.90
20041;DHT22;10181;48.072;9.884;2023-04-01T05:13:43;6.00;99.90
20041;DHT22;10181;48.072;9.884;2023-04-01T05:16:14;6.10;99.90
20041;DHT22;10181;48.072;9.884;2023-04-01T05:18:40;6.10;99.90
20041;DHT22;10181;48.072;9.884;2023-04-01T05:21:08;6.10;99.90
20041;DHT22;10181;48.072;9.884;2023-04-01T05:23:34;6.10;99.90
20041;DHT22;10181;48.072;9.884;2023-04-01T05:26:11;6.20;99.90
20041;DHT22;10181;48.072;9.884;2023-04-01T05:28:37;6.20;99.90
20041;DHT22;10181;48.072;9.884;2023-04-01T05:31:05;6.30;99.90
20041;DHT22;10181;48.072;9.884;2023-04-01T05:33:30;6.30;99.90
20041;DHT22;10181;48.072;9.884;2023-04-01T05:35:57;6.30;99.90
20041;DHT22;10181;48.072;9.884;2023-04-01T05:38:30;6.30;99.90
20041;DHT22;10181;48.072;9.884;2023-04-01T05:40:59;6.30;99.90
20041;DHT22;10181;48.072;9.884;2023-04-01T05:43:25;6.30;99.90
20041;DHT22;10181;48.072;9.884;2023-04-01T05:45:51;6.30;99.90
20041;DHT22;10181;48.072;9.884;2023-04-01T05:48:16;6.30;99.90
20041;DHT22;10181;48.072;9.884;2023-04-01T05:50:42;6.30;99.90
20041;DHT22;10181;48.072;9.884;2023-04-01T05:53:08;6.30;99.90
20041;DHT22;10181;48.072;9.884;2023-04-01T05:55:35;6.40;99.90
20041;DHT22;10181;48.072;9.884;2023-04-01T05:58:01;6.40;99.90
20041;DHT22;10181;48.072;9.884;2023-04-01T06:00:27;6.40;99.90
20041;DHT22;10181;48.072;9.884;2023-04-01T06:02:52;6.40;99.90
20041;DHT22;10181;48.072;9.884;2023-04-01T06:05:21;6.30;99.90
20041;DHT22;10181;48.072;9.884;2023-04-01T06:07:47;6.30;99.90
20041;DHT22;10181;48.072;9.884;2023-04-01T06:10:20;6.30;99.90
20041;DHT22;10181;48.072;9.884;2023-04-01T06:26:44;6.30;99.90
20041;DHT22;10181;48.072;9.884;2023-04-01T06:29:40;6.30;99.90
20041;DHT22;10181;48.072;9.884;2023-04-01T06:32:27;6.40;99.90
20041;DHT22;10181;48.072;9.884;2023-04-01T06:35:24;6.30;99.90
20041;DHT22;10181;48.072;9.884;2023-04-01T06:38:07;6.40;99.90
20041;DHT22;10181;48.072;9.884;2023-04-01T06:40:43;6.30;99.90
20041;DHT22;10181;48.072;9.884;2023-04-01T06:43:37;6.30;99.90
20041;DHT22;10181;48.072;9.884;2023-04-01T06:49:19;6.50;99.90
20041;DHT22;10181;48.072;9.884;2023-04-01T06:54:54;6.50;99.90
20041;DHT22;10181;48.072;9.884;2023-04-01T06:57:34;6.50;99.90
20041;DHT22;10181;48.072;9.884;2023-04-01T07:00:04;6.50;99.90
20041;DHT22;10181;48.072;9.884;2023-04-01T07:02:50;6.50;99.90
20041;DHT22;10181;48.072;9.884;2023-04-01T07:05:22;6.50;99.90
20041;DHT22;10181;48.072;9.884;2023-04-01T07:07:51;6.50;99.90
20041;DHT22;10181;48.072;9.884;2023-04-01T07:13:15;6.70;99.90
20041;DHT22;10181;48.072;9.884;2023-04-01T07:18:42;6.60;99.90
20041;DHT22;10181;48.072;9.884;2023-04-01T07:21:23;6.70;99.90
20041;DHT22;10181;48.072;9.884;2023-04-01T07:23:51;6.70;99.90
20041;DHT22;10181;48.072;9.884;2023-04-01T07:26:23;6.80;99.90
20041;DHT22;10181;48.072;9.884;2023-04-01T07:28:52;6.80;99.90
20041;DHT22;10181;48.072;9.884;2023-04-01T07:34:25;6.90;99.90
20041;DHT22;10181;48.072;9.884;2023-04-01T07:48:25;7.30;99.90
20041;DHT22;10181;48.072;9.884;2023-04-01T07:51:21;7.40;99.90
20041;DHT22;10181;48.072;9.884;2023-04-01T07:53:51;7.50;99.90
20041;DHT22;10181;48.072;9.884;2023-04-01T08:07:20;7.70;99.90
20041;DHT22;10181;48.072;9.884;2023-04-01T08:10:27;7.70;99.90
20041;DHT22;10181;48.072;9.884;2023-04-01T08:18:41;7.70;99.90
20041;DHT22;10181;48.072;9.884;2023-04-01T08:21:23;7.70;99.90
20041;DHT22;10181;48.072;9.884;2023-04-01T08:23:52;7.70;99.90
20041;DHT22;10181;48.072;9.884;2023-04-01T08:26:27;7.60;99.90
20041;DHT22;10181;48.072;9.884;2023-04-01T08:29:12;7.60;99.90
20041;DHT22;10181;48.072;9.884;2023-04-01T08:31:50;7.60;99.90
20041;DHT22;10181;48.072;9.884;2023-04-01T08:34:20;7.60;99.90
20041;DHT22;10181;48.072;9.884;2023-04-01T08:36:53;7.50;99.90
20041;DHT22;10181;48.072;9.884;2023-04-01T08:39:44;7.60;99.90
20041;DHT22;10181;48.072;9.884;2023-04-01T08:42:43;7.60;99.90
20041;DHT22;10181;48.072;9.884;2023-04-01T08:48:04;7.80;99.90
20041;DHT22;10181;48.072;9.884;2023-04-01T08:53:46;7.80;99.90
20041;DHT22;10181;48.072;9.884;2023-04-01T08:56:26;7.80;99.90
20041;DHT22;10181;48.072;9.884;2023-04-01T09:04:27;7.70;99.90
20041;DHT22;10181;48.072;9.884;2023-04-01T09:07:05;7.70;99.90
20041;DHT22;10181;48.072;9.884;2023-04-01T09:19:06;7.70;99.90
20041;DHT22;10181;48.072;9.884;2023-04-01T09:27:37;7.70;99.90
20041;DHT22;10181;48.072;9.884;2023-04-01T10:09:50;7.50;99.90
20041;DHT22;10181;48.072;9.884;2023-04-01T10:44:17;7.50;99.90
20041;DHT22;10181;48.072;9.884;2023-04-01T10:47:16;7.50;99.90
20041;DHT22;10181;48.072;9.884;2023-04-01T10:53:28;7.60;99.90
20041;DHT22;10181;48.072;9.884;2023-04-01T11:15:48;7.70;99.90
20041;DHT22;10181;48.072;9.884;2023-04-01T11:30:33;7.60;99.90
20041;DHT22;10181;48.072;9.884;2023-04-01T11:32:57;7.60;99.90
20041;DHT22;10181;48.072;9.884;2023-04-01T11:36:04;7.60;99.90
20041;DHT22;10181;48.072;9.884;2023-04-01T11:41:49;7.50;99.90
20041;DHT22;10181;48.072;9.884;2023-04-01T11:44:23;7.40;99.90
20041;DHT22;10181;48.072;9.884;2023-04-01T11:49:36;7.30;99.90
20041;DHT22;10181;48.072;9.884;2023-04-01T12:05:36;7.40;99.90
20041;DHT22;10181;48.072;9.884;2023-04-01T12:08:33;7.40;99.90
20041;DHT22;10181;48.072;9.884;2023-04-01T12:11:33;7.40;99.90
20041;DHT22;10181;48.072;9.884;2023-04-01T12:14:12;7.50;99.90
20041;DHT22;10181;48.072;9.884;2023-04-01T12:19:31;7.50;99.90
20041;DHT22;10181;48.072;9.884;2023-04-01T12:22:21;7.60;99.90
20041;DHT22;10181;48.072;9.884;2023-04-01T12:25:13;7.60;99.90
20041;DHT22;10181;48.072;9.884;2023-04-01T12:33:20;7.70;99.90
20041;DHT22;10181;48.072;9.884;2023-04-01T12:36:18;7.70;99.90
20041;DHT22;10181;48.072;9.884;2023-04-01T12:41:53;7.80;99.90
20041;DHT22;10181;48.072;9.884;2023-04-01T12:44:26;7.90;99.90
20041;DHT22;10181;48.072;9.884;2023-04-01T12:55:12;8.10;99.90
20041;DHT22;10181;48.072;9.884;2023-04-01T12:58:17;8.10;99.90
20041;DHT22;10181;48.072;9.884;2023-04-01T13:16:42;8.60;99.90
20041;DHT22;10181;48.072;9.884;2023-04-01T13:19:24;8.60;99.90
20041;DHT22;10181;48.072;9.884;2023-04-01T13:27:44;8.70;99.90
20041;DHT22;10181;48.072;9.884;2023-04-01T13:32:59;8.80;99.90
20041;DHT22;10181;48.072;9.884;2023-04-01T13:35:39;8.80;99.90
20041;DHT22;10181;48.072;9.884;2023-04-01T14:00:56;9.50;99.90
20041;DHT22;10181;48.072;9.884;2023-04-01T14:12:16;9.00;99.90
20041;DHT22;10181;48.072;9.884;2023-04-01T14:17:35;9.00;99.90
20041;DHT22;10181;48.072;9.884;2023-04-01T14:22:52;8.80;99.90
20041;DHT22;10181;48.072;9.884;2023-04-01T14:47:25;8.60;99.90
20041;DHT22;10181;48.072;9.884;2023-04-01T14:50:05;8.50;99.90
20041;DHT22;10181;48.072;9.884;2023-04-01T14:52:36;8.60;99.90
20041;DHT22;10181;48.072;9.884;2023-04-01T14:55:28;8.60;99.90
20041;DHT22;10181;48.072;9.884;2023-04-01T14:58:16;8.70;99.90
20041;DHT22;10181;48.072;9.884;2023-04-01T15:00:52;8.70;99.90
20041;DHT22;10181;48.072;9.884;2023-04-01T15:36:02;8.50;99.90
20041;DHT22;10181;48.072;9.884;2023-04-01T15:39:17;8.40;99.90
20041;DHT22;10181;48.072;9.884;2023-04-01T15:55:35;8.30;99.90
20041;DHT22;10181;48.072;9.884;2023-04-01T16:00:49;8.30;99.90
20041;DHT22;10181;48.072;9.884;2023-04-01T16:09:43;8.30;99.90
20041;DHT22;10181;48.072;9.884;2023-04-01T16:20:20;8.30;99.90
20041;DHT22;10181;48.072;9.884;2023-04-01T16:23:01;8.30;99.90
20041;DHT22;10181;48.072;9.884;2023-04-01T16:25:36;8.30;99.90
20041;DHT22;10181;48.072;9.884;2023-04-01T16:28:25;8.30;99.90
20041;DHT22;10181;48.072;9.884;2023-04-01T16:34:21;8.30;99.90
20041;DHT22;10181;48.072;9.884;2023-04-01T16:47:40;8.20;99.90
20041;DHT22;10181;48.072;9.884;2023-04-01T16:53:19;8.10;99.90
20041;DHT22;10181;48.072;9.884;2023-04-01T16:55:55;8.10;99.90
20041;DHT22;10181;48.072;9.884;2023-04-01T17:01:05;8.10;99.90
20041;DHT22;10181;48.072;9.884;2023-04-01T17:03:38;8.10;99.90
20041;DHT22;10181;48.072;9.884;2023-04-01T17:12:00;8.10;99.90
20041;DHT22;10181;48.072;9.884;2023-04-01T17:14:41;7.90;99.90
20041;DHT22;10181;48.072;9.884;2023-04-01T17:39:05;7.60;99.90
20041;DHT22;10181;48.072;9.884;2023-04-01T17:41:50;7.60;99.90
20041;DHT22;10181;48.072;9.884;2023-04-01T17:50:21;7.50;99.90
20041;DHT22;10181;48.072;9.884;2023-04-01T17:58:50;7.50;99.90
20041;DHT22;10181;48.072;9.884;2023-04-01T18:07:51;7.40;99.90
20041;DHT22;10181;48.072;9.884;2023-04-01T18:19:47;7.30;99.90
20041;DHT22;10181;48.072;9.884;2023-04-01T18:25:41;7.30;99.90
20041;DHT22;10181;48.072;9.884;2023-04-01T18:28:39;7.20;99.90
20041;DHT22;10181;48.072;9.884;2023-04-01T18:31:19;7.20;99.90
20041;DHT22;10181;48.072;9.884;2023-04-01T18:33:59;7.20;99.90
20041;DHT22;10181;48.072;9.884;2023-04-01T18:39:22;7.20;99.90
20041;DHT22;10181;48.072;9.884;2023-04-01T18:42:07;7.20;99.90
20041;DHT22;10181;48.072;9.884;2023-04-01T18:44:51;7.10;99.90
20041;DHT22;10181;48.072;9.884;2023-04-01T18:52:43;7.10;99.90
20041;DHT22;10181;48.072;9.884;2023-04-01T18:57:53;7.00;99.90
20041;DHT22;10181;48.072;9.884;2023-04-01T19:00:28;7.00;99.90
20041;DHT22;10181;48.072;9.884;2023-04-01T19:03:16;6.90;99.90
20041;DHT22;10181;48.072;9.884;2023-04-01T19:05:47;6.90;99.90
20041;DHT22;10181;48.072;9.884;2023-04-01T19:08:33;6.80;99.90
20041;DHT22;10181;48.072;9.884;2023-04-01T19:17:17;6.70;99.90
20041;DHT22;10181;48.072;9.884;2023-04-01T19:22:49;6.70;99.90
20041;DHT22;10181;48.072;9.884;2023-04-01T19:25:35;6.60;99.90
20041;DHT22;10181;48.072;9.884;2023-04-01T19:28:31;6.60;99.90
20041;DHT22;10181;48.072;9.884;2023-04-01T19:30:59;6.60;99.90
20041;DHT22;10181;48.072;9.884;2023-04-01T19:36:00;6.60;99.90
20041;DHT22;10181;48.072;9.884;2023-04-01T19:41:40;6.70;99.90
20041;DHT22;10181;48.072;9.884;2023-04-01T19:47:17;6.70;99.90
20041;DHT22;10181;48.072;9.884;2023-04-01T19:52:36;6.60;99.90
20041;DHT22;10181;48.072;9.884;2023-04-01T19:55:28;6.60;99.90
20041;DHT22;10181;48.072;9.884;2023-04-01T20:00:43;6.60;99.90
20041;DHT22;10181;48.072;9.884;2023-04-01T20:05:53;6.50;99.90
20041;DHT22;10181;48.072;9.884;2023-04-01T20:16:07;6.50;99.90
20041;DHT22;10181;48.072;9.884;2023-04-01T20:26:22;6.50;99.90
20041;DHT22;10181;48.072;9.884;2023-04-01T20:35:35;6.50;99.90
20041;DHT22;10181;48.072;9.884;2023-04-01T20:44:36;6.40;99.90
20041;DHT22;10181;48.072;9.884;2023-04-01T20:50:11;6.40;99.90
20041;DHT22;10181;48.072;9.884;2023-04-01T20:52:52;6.40;99.90
20041;DHT22;10181;48.072;9.884;2023-04-01T21:01:32;6.40;99.90
20041;DHT22;10181;48.072;9.884;2023-04-01T21:04:14;6.40;99.90
20041;DHT22;10181;48.072;9.884;2023-04-01T21:06:59;6.40;99.90
20041;DHT22;10181;48.072;9.884;2023-04-01T21:15:31;6.30;99.90
20041;DHT22;10181;48.072;9.884;2023-04-01T21:26:44;6.20;99.90
20041;DHT22;10181;48.072;9.884;2023-04-01T21:52:27;6.10;99.90
20041;DHT22;10181;48.072;9.884;2023-04-01T22:00:40;5.90;99.90
20041;DHT22;10181;48.072;9.884;2023-04-01T22:11:23;5.90;99.90
20041;DHT22;10181;48.072;9.884;2023-04-01T22:14:08;5.80;99.90
20041;DHT22;10181;48.072;9.884;2023-04-01T22:16:48;5.80;99.90
20041;DHT22;10181;48.072;9.884;2023-04-01T22:22:13;5.80;99.90
20041;DHT22;10181;48.072;9.884;2023-04-01T22:27:45;5.80;99.90
20041;DHT22;10181;48.072;9.884;2023-04-01T22:32:48;5.80;99.90
20041;DHT22;10181;48.072;9.884;2023-04-01T22:35:28;5.80;99.90
20041;DHT22;10181;48.072;9.884;2023-04-01T22:42:57;5.70;99.90
20041;DHT22;10181;48.072;9.884;2023-04-01T22:45:38;5.70;99.90
20041;DHT22;10181;48.072;9.884;2023-04-01T22:53:52;5.70;99.90
20041;DHT22;10181;48.072;9.884;2023-04-01T22:56:27;5.70;99.90
20041;DHT22;10181;48.072;9.884;2023-04-01T22:59:04;5.60;99.90
20041;DHT22;10181;48.072;9.884;2023-04-01T23:01:36;5.60;99.90
20041;DHT22;10181;48.072;9.884;2023-04-01T23:04:05;5.60;99.90
20041;DHT22;10181;48.072;9.884;2023-04-01T23:06:39;5.60;99.90
20041;DHT22;10181;48.072;9.884;2023-04-01T23:09:26;5.50;99.90
20041;DHT22;10181;48.072;9.884;2023-04-01T23:11:58;5.50;99.90
20041;DHT22;10181;48.072;9.884;2023-04-01T23:14:42;5.50;99.90
20041;DHT22;10181;48.072;9.884;2023-04-01T23:17:31;5.50;99.90
20041;DHT22;10181;48.072;9.884;2023-04-01T23:23:05;5.50;99.90
20041;DHT22;10181;48.072;9.884;2023-04-01T23:36:12;5.50;99.90
20041;DHT22;10181;48.072;9.884;2023-04-01T23:38:43;5.40;99.90
20041;DHT22;10181;48.072;9.884;2023-04-01T23:41:25;5.40;99.90
20041;DHT22;10181;48.072;9.884;2023-04-01T23:44:00;5.50;99.90
20041;DHT22;10181;48.072;9.884;2023-04-01T23:46:29;5.50;99.90
20041;DHT22;10181;48.072;9.884;2023-04-01T23:48:55;5.50;99.90
20041;DHT22;10181;48.072;9.884;2023-04-01T23:51:24;5.50;99.90
20041;DHT22;10181;48.072;9.884;2023-04-01T23:54:03;5.60;99.90
20041;DHT22;10181;48.072;9.884;2023-04-01T23:56:42;5.60;99.90
20041;DHT22;10181;48.072;9.884;2023-04-01T23:59:38;5.60;99.90
